Time;durP1;ratioP1;P1;durP2;ratioP2;P2;SDS_P1;SDS_P2;PMS_P1;PMS_P2;Temp;Humidity;BMP_temperature;BMP_pressure;BME280_temperature;BME280_humidity;BME280_pressure;Samples;Min_cycle;Max_cycle;Signal;HPM_P1;HPM_P2
2022/09/10 00:00:54;;;;;;;2.73;1.70;;;13.50;99.90;;;;;;8348704;28;20185;-68
2022/09/10 00:04:55;;;;;;;2.70;1.70;;;13.40;99.90;;;;;;8347446;28;20192;-68
2022/09/10 00:08:57;;;;;;;2.23;1.70;;;13.40;99.90;;;;;;8347522;28;20201;-68
2022/09/10 00:12:58;;;;;;;1.87;1.53;;;13.40;99.90;;;;;;8347425;28;20221;-68
2022/09/10 00:16:58;;;;;;;1.40;1.30;;;13.40;99.90;;;;;;8347976;28;20250;-68
2022/09/10 00:21:01;;;;;;;3.67;1.70;;;13.30;99.90;;;;;;8347366;28;20216;-68
2022/09/10 00:25:02;;;;;;;3.30;1.57;;;13.30;99.90;;;;;;8348753;28;20208;-68
2022/09/10 00:29:05;;;;;;;2.10;1.50;;;13.30;99.90;;;;;;8345965;28;20197;-68
2022/09/10 00:33:06;;;;;;;1.70;1.50;;;13.30;99.90;;;;;;8367611;28;20213;-68
2022/09/10 00:37:07;;;;;;;1.87;1.47;;;13.20;99.90;;;;;;8345602;28;20209;-68
2022/09/10 00:41:09;;;;;;;1.83;1.20;;;13.20;99.90;;;;;;8347098;28;20193;-68
2022/09/10 00:45:19;;;;;;;1.33;1.20;;;13.10;99.90;;;;;;8347333;28;20201;-68
2022/09/10 00:49:32;;;;;;;2.17;1.27;;;13.10;99.90;;;;;;8351757;28;20188;-68
2022/09/10 00:53:33;;;;;;;3.03;1.97;;;13.00;99.90;;;;;;8361394;28;20209;-68
2022/09/10 00:57:34;;;;;;;2.33;1.80;;;13.10;99.90;;;;;;8350306;28;20268;-68
2022/09/10 01:01:37;;;;;;;2.00;1.80;;;13.10;99.90;;;;;;8346709;28;20523;-68
2022/09/10 01:05:41;;;;;;;2.40;1.77;;;13.10;99.90;;;;;;8345990;28;20174;-67
2022/09/10 01:09:42;;;;;;;2.50;1.40;;;13.10;99.90;;;;;;8347994;28;20186;-67
2022/09/10 01:14:23;;;;;;;1.60;1.50;;;13.00;99.90;;;;;;8345194;28;20233;-68
2022/09/10 01:18:58;;;;;;;1.80;1.23;;;12.90;99.90;;;;;;8349307;28;20239;-68
2022/09/10 01:23:10;;;;;;;1.60;1.50;;;12.90;99.90;;;;;;8337894;28;20202;-68
2022/09/10 01:27:32;;;;;;;1.90;1.50;;;12.80;99.90;;;;;;8338461;28;20206;-68
2022/09/10 01:31:48;;;;;;;2.87;1.57;;;12.80;99.90;;;;;;8358502;28;20212;-67
2022/09/10 01:35:52;;;;;;;1.83;1.20;;;12.80;99.90;;;;;;8354553;28;20182;-68
2022/09/10 01:39:55;;;;;;;3.90;1.90;;;12.70;99.90;;;;;;8351025;28;20237;-68
2022/09/10 01:43:55;;;;;;;4.00;1.67;;;12.60;99.90;;;;;;8353492;28;20186;-68
2022/09/10 01:48:08;;;;;;;2.17;1.43;;;12.50;99.90;;;;;;8352759;28;20189;-67
2022/09/10 01:52:30;;;;;;;3.10;1.30;;;12.50;99.90;;;;;;8356786;28;20216;-68
2022/09/10 01:56:48;;;;;;;1.70;1.60;;;12.40;99.90;;;;;;8352404;28;20185;-68
2022/09/10 02:01:24;;;;;;;2.03;1.40;;;12.40;99.90;;;;;;8384502;28;20182;-68
2022/09/10 02:05:28;;;;;;;2.57;1.93;;;12.40;99.90;;;;;;8353090;28;20182;-68
2022/09/10 02:09:29;;;;;;;3.23;2.00;;;12.50;99.90;;;;;;8353205;28;20185;-68
2022/09/10 02:13:31;;;;;;;2.30;1.60;;;12.50;99.90;;;;;;8350833;28;20265;-68
2022/09/10 02:17:35;;;;;;;1.70;1.60;;;12.40;99.90;;;;;;8350678;28;20178;-68
2022/09/10 02:21:37;;;;;;;1.50;1.40;;;12.40;99.90;;;;;;8348854;28;20383;-67
2022/09/10 02:25:37;;;;;;;1.23;1.13;;;12.40;99.90;;;;;;8347232;28;20272;-68
2022/09/10 02:29:38;;;;;;;1.43;1.33;;;12.30;99.90;;;;;;8352065;28;20613;-69
2022/09/10 02:33:39;;;;;;;1.77;1.60;;;12.20;99.90;;;;;;8351793;28;20209;-68
2022/09/10 02:37:41;;;;;;;1.50;1.40;;;12.20;99.90;;;;;;8347460;28;20181;-68
2022/09/10 02:41:42;;;;;;;1.80;1.53;;;12.10;99.90;;;;;;8349480;28;20180;-68
2022/09/10 02:45:43;;;;;;;2.90;1.23;;;12.00;99.90;;;;;;8351558;28;20188;-70
2022/09/10 02:49:44;;;;;;;2.20;2.00;;;12.00;99.90;;;;;;8350379;28;20181;-68
2022/09/10 02:53:45;;;;;;;1.27;1.17;;;11.90;99.90;;;;;;8349484;28;20266;-68
2022/09/10 02:57:47;;;;;;;1.40;1.30;;;11.80;99.90;;;;;;8349913;28;20196;-68
2022/09/10 03:01:48;;;;;;;1.60;1.40;;;11.70;99.90;;;;;;8350580;28;20179;-68
2022/09/10 03:05:48;;;;;;;1.33;1.23;;;11.70;99.90;;;;;;8350832;28;20288;-68
2022/09/10 03:09:49;;;;;;;2.53;1.90;;;11.60;99.90;;;;;;8350991;28;20196;-67
2022/09/10 03:13:50;;;;;;;3.00;1.87;;;11.60;99.90;;;;;;8348920;28;20257;-68
2022/09/10 03:17:51;;;;;;;1.90;1.70;;;11.60;99.90;;;;;;8344107;28;20165;-68
2022/09/10 03:21:52;;;;;;;1.70;1.60;;;11.50;99.90;;;;;;8351453;28;20206;-68
2022/09/10 03:25:53;;;;;;;3.10;2.80;;;11.50;99.90;;;;;;8349698;28;20188;-68
2022/09/10 03:29:54;;;;;;;3.07;2.80;;;11.60;99.90;;;;;;8350525;28;20185;-68
2022/09/10 03:33:56;;;;;;;2.50;2.30;;;11.60;99.90;;;;;;8349405;28;20290;-68
2022/09/10 03:37:56;;;;;;;2.90;2.60;;;11.60;99.90;;;;;;8346876;28;20268;-68
2022/09/10 03:41:57;;;;;;;4.47;3.30;;;11.60;99.90;;;;;;8347761;28;20254;-68
2022/09/10 03:45:58;;;;;;;5.80;3.50;;;11.70;99.90;;;;;;8349237;28;20196;-68
2022/09/10 03:49:59;;;;;;;3.43;3.03;;;11.80;99.90;;;;;;8348202;28;20223;-70
2022/09/10 03:54:01;;;;;;;3.27;2.97;;;11.80;99.90;;;;;;8351487;28;20220;-68
2022/09/10 03:58:02;;;;;;;4.33;3.20;;;11.90;99.90;;;;;;8349154;28;20584;-68
2022/09/10 04:02:03;;;;;;;3.20;2.90;;;11.90;99.90;;;;;;8348641;28;20189;-68
2022/09/10 04:06:04;;;;;;;3.63;3.20;;;11.90;99.90;;;;;;8347139;28;20192;-68
2022/09/10 04:10:05;;;;;;;6.80;3.63;;;11.90;99.90;;;;;;8348666;28;20220;-68
2022/09/10 04:14:06;;;;;;;4.83;4.27;;;12.00;99.90;;;;;;8343398;28;20221;-69
2022/09/10 04:18:07;;;;;;;6.37;4.53;;;12.20;99.90;;;;;;8350213;28;20177;-68
2022/09/10 04:22:08;;;;;;;4.77;4.20;;;12.40;99.90;;;;;;8351220;28;20234;-68
2022/09/10 04:26:18;;;;;;;5.67;4.40;;;12.50;99.90;;;;;;8346847;28;20196;-68
2022/09/10 04:30:18;;;;;;;4.70;3.97;;;12.60;99.90;;;;;;8380954;28;21794;-68
2022/09/10 04:34:21;;;;;;;6.20;4.13;;;12.60;99.90;;;;;;8348209;28;20292;-69
2022/09/10 04:38:22;;;;;;;5.93;4.03;;;12.70;99.90;;;;;;8345828;28;20189;-68
2022/09/10 04:42:23;;;;;;;4.70;4.23;;;12.70;99.90;;;;;;8345276;28;20225;-68
2022/09/10 04:46:24;;;;;;;6.60;4.63;;;12.80;99.90;;;;;;8346142;28;20213;-68
2022/09/10 04:50:25;;;;;;;6.63;4.50;;;12.90;99.90;;;;;;8349173;28;20192;-68
2022/09/10 04:54:26;;;;;;;7.90;5.07;;;12.90;99.90;;;;;;8347768;28;20190;-68
2022/09/10 04:58:27;;;;;;;5.87;4.93;;;12.90;99.90;;;;;;8352568;28;20193;-67
2022/09/10 05:02:28;;;;;;;6.13;3.70;;;12.90;99.90;;;;;;8343767;28;20197;-68
2022/09/10 05:06:28;;;;;;;5.23;4.10;;;13.00;99.90;;;;;;8350256;28;20181;-68
2022/09/10 05:10:29;;;;;;;5.10;4.33;;;13.10;99.90;;;;;;8353217;28;20192;-68
2022/09/10 05:14:30;;;;;;;4.80;4.30;;;13.20;99.90;;;;;;8352906;28;20205;-68
2022/09/10 05:18:31;;;;;;;5.10;4.27;;;13.20;99.90;;;;;;8353712;28;20177;-68
2022/09/10 05:22:33;;;;;;;5.10;4.10;;;13.20;99.90;;;;;;8355014;28;20201;-68
2022/09/10 05:26:34;;;;;;;6.27;3.30;;;13.20;99.90;;;;;;8357547;28;20204;-69
2022/09/10 05:30:35;;;;;;;4.57;3.70;;;13.20;99.90;;;;;;8354150;28;20201;-68
2022/09/10 05:34:38;;;;;;;3.67;2.93;;;13.40;99.90;;;;;;8350804;28;20186;-68
2022/09/10 05:38:39;;;;;;;5.93;3.37;;;13.50;99.90;;;;;;8345111;28;20186;-68
2022/09/10 05:42:39;;;;;;;5.80;2.53;;;13.60;99.90;;;;;;8357102;28;20207;-68
2022/09/10 05:46:40;;;;;;;4.90;3.00;;;13.80;99.90;;;;;;8351261;28;20232;-68
2022/09/10 05:50:44;;;;;;;4.33;2.53;;;13.90;99.90;;;;;;8372039;28;20185;-68
2022/09/10 05:54:45;;;;;;;3.97;2.70;;;14.00;99.90;;;;;;8353253;28;20189;-68
2022/09/10 05:58:46;;;;;;;3.37;2.33;;;14.10;99.90;;;;;;8351602;28;20288;-68
2022/09/10 06:02:47;;;;;;;2.47;1.90;;;14.20;99.90;;;;;;8349714;28;20194;-68
2022/09/10 06:06:48;;;;;;;2.77;1.93;;;14.30;99.90;;;;;;8351568;28;20246;-69
2022/09/10 06:11:01;;;;;;;5.77;2.30;;;14.40;99.90;;;;;;8355133;28;20210;-69
2022/09/10 06:15:02;;;;;;;2.77;2.10;;;14.50;99.90;;;;;;8363368;28;20189;-68
2022/09/10 06:19:03;;;;;;;3.40;2.50;;;14.60;99.90;;;;;;8352474;28;20185;-68
2022/09/10 06:23:04;;;;;;;4.63;2.83;;;14.80;99.90;;;;;;8347816;28;20205;-71
2022/09/10 06:27:05;;;;;;;6.43;2.30;;;14.90;99.90;;;;;;8350556;28;20617;-69
2022/09/10 06:31:07;;;;;;;2.70;1.97;;;15.00;99.90;;;;;;8353194;28;20217;-68
2022/09/10 06:35:08;;;;;;;3.00;2.07;;;15.10;99.90;;;;;;8350594;28;20199;-68
2022/09/10 06:39:09;;;;;;;3.07;2.10;;;15.30;99.90;;;;;;8353095;28;20182;-68
2022/09/10 06:43:10;;;;;;;5.10;1.90;;;15.50;99.90;;;;;;8349074;28;20198;-69
2022/09/10 06:47:12;;;;;;;3.70;1.60;;;15.80;99.90;;;;;;8350538;28;20203;-69
2022/09/10 06:51:14;;;;;;;1.80;1.53;;;16.10;99.90;;;;;;8352394;28;20333;-69
2022/09/10 06:55:15;;;;;;;1.57;1.20;;;16.30;99.90;;;;;;8349745;28;20223;-69
2022/09/10 06:59:17;;;;;;;4.87;1.70;;;16.60;99.90;;;;;;8353512;28;20316;-69
2022/09/10 07:03:19;;;;;;;5.33;1.40;;;16.90;99.90;;;;;;8349644;28;20189;-69
2022/09/10 07:07:20;;;;;;;2.13;1.03;;;17.00;99.90;;;;;;8340216;28;20220;-69
2022/09/10 07:11:22;;;;;;;2.03;1.00;;;17.10;99.90;;;;;;8346700;28;20213;-69
2022/09/10 07:15:23;;;;;;;1.30;0.63;;;17.30;1.00;;;;;;8349850;28;20217;-69
2022/09/10 07:19:24;;;;;;;3.47;0.80;;;17.50;1.00;;;;;;8349739;28;20181;-69
2022/09/10 07:23:25;;;;;;;2.57;1.00;;;17.50;99.90;;;;;;8349590;28;20224;-69
2022/09/10 07:27:25;;;;;;;2.30;0.87;;;17.50;99.90;;;;;;8349307;28;20188;-69
2022/09/10 07:31:29;;;;;;;1.50;0.70;;;17.40;99.90;;;;;;8349723;28;20220;-70
2022/09/10 07:35:32;;;;;;;1.63;0.67;;;17.40;99.90;;;;;;8350172;28;20189;-69
2022/09/10 07:39:33;;;;;;;3.43;1.00;;;17.50;99.90;;;;;;8349698;28;20269;-68
2022/09/10 07:43:34;;;;;;;1.93;0.90;;;17.40;99.90;;;;;;8352065;28;20189;-69
2022/09/10 07:47:35;;;;;;;1.37;0.60;;;17.40;99.90;;;;;;8349296;28;20193;-69
2022/09/10 07:51:36;;;;;;;2.63;1.00;;;17.70;99.90;;;;;;8342751;28;20224;-70
2022/09/10 07:55:36;;;;;;;2.40;0.70;;;17.70;45.20;;;;;;8349836;28;20245;-69
2022/09/10 07:59:37;;;;;;;0.90;0.80;;;17.80;18.90;;;;;;8352093;28;20444;-70
2022/09/10 08:03:39;;;;;;;2.10;1.07;;;18.00;99.90;;;;;;8345814;28;20189;-69
2022/09/10 08:07:40;;;;;;;1.60;0.63;;;17.80;1.00;;;;;;8341492;28;20189;-69
2022/09/10 08:11:41;;;;;;;3.17;0.93;;;18.00;1.00;;;;;;8350773;28;20225;-70
2022/09/10 08:15:43;;;;;;;2.20;0.90;;;18.00;23.00;;;;;;8347320;28;20197;-69
2022/09/10 08:19:44;;;;;;;2.00;0.80;;;18.10;99.90;;;;;;8349641;28;20200;-70
2022/09/10 08:23:53;;;;;;;0.83;0.50;;;18.30;1.00;;;;;;8348697;28;20210;-69
2022/09/10 08:27:55;;;;;;;3.33;0.70;;;18.40;1.00;;;;;;8364846;28;20185;-69
2022/09/10 08:31:57;;;;;;;2.57;0.73;;;18.30;1.00;;;;;;8348044;28;20206;-70
2022/09/10 08:35:59;;;;;;;1.37;0.70;;;18.20;99.90;;;;;;8348941;28;20197;-71
2022/09/10 08:40:00;;;;;;;1.70;0.50;;;18.30;1.00;;;;;;8346743;28;20181;-70
2022/09/10 08:44:22;;;;;;;2.60;0.53;;;18.40;99.90;;;;;;8363476;28;20252;-69
2022/09/10 08:48:26;;;;;;;2.93;0.77;;;18.50;99.90;;;;;;8349346;28;20185;-71
2022/09/10 08:52:42;;;;;;;1.20;0.60;;;18.60;99.90;;;;;;8345947;28;20308;-69
2022/09/10 08:56:44;;;;;;;2.87;0.90;;;18.80;99.90;;;;;;8341313;28;20336;-71
2022/09/10 09:00:45;;;;;;;3.03;0.87;;;18.80;99.90;;;;;;8384176;28;20178;-69
2022/09/10 09:05:01;;;;;;;2.57;0.70;;;18.80;1.00;;;;;;8344152;28;20515;-69
2022/09/10 09:09:04;;;;;;;1.87;0.70;;;19.00;99.90;;;;;;8350799;28;20189;-69
2022/09/10 09:13:21;;;;;;;2.10;0.60;;;18.90;99.90;;;;;;8348493;28;20213;-69
2022/09/10 09:17:43;;;;;;;4.60;0.80;;;18.90;99.90;;;;;;8342851;28;20243;-70
2022/09/10 09:21:58;;;;;;;1.80;0.60;;;18.90;99.90;;;;;;8346726;28;20198;-69
2022/09/10 09:26:12;;;;;;;1.57;0.50;;;19.10;99.90;;;;;;8351348;28;20209;-69
2022/09/10 09:30:21;;;;;;;2.80;0.80;;;19.30;99.90;;;;;;8353306;28;20193;-69
2022/09/10 09:34:45;;;;;;;3.07;0.70;;;19.60;99.90;;;;;;8345902;28;20272;-69
2022/09/10 09:38:48;;;;;;;1.73;0.60;;;19.80;99.90;;;;;;8342339;28;20185;-70
2022/09/10 09:42:57;;;;;;;2.10;0.50;;;20.00;99.90;;;;;;8342044;28;20186;-69
2022/09/10 09:46:57;;;;;;;2.60;0.70;;;20.20;99.90;;;;;;8346564;28;20381;-69
2022/09/10 09:50:59;;;;;;;2.60;0.80;;;20.50;99.90;;;;;;8345401;28;20228;-69
2022/09/10 09:55:12;;;;;;;4.07;0.67;;;20.60;99.90;;;;;;8351667;28;20193;-69
2022/09/10 09:59:33;;;;;;;1.73;0.60;;;20.30;99.90;;;;;;8351063;28;20190;-69
2022/09/10 10:03:47;;;;;;;1.83;0.60;;;20.40;99.90;;;;;;8349442;28;20194;-69
2022/09/10 10:07:48;;;;;;;1.07;0.70;;;20.00;99.90;;;;;;8351580;28;20253;-69
2022/09/10 10:11:54;;;;;;;1.40;0.60;;;19.80;99.90;;;;;;8347980;28;20272;-69
2022/09/10 10:15:54;;;;;;;0.80;0.50;;;20.10;99.90;;;;;;8352323;28;20252;-69
2022/09/10 10:20:15;;;;;;;1.33;0.77;;;20.30;99.90;;;;;;8347996;28;20199;-69
2022/09/10 10:24:33;;;;;;;1.30;0.70;;;20.60;99.90;;;;;;8350615;28;20482;-69
2022/09/10 10:28:34;;;;;;;1.50;0.60;;;20.50;99.90;;;;;;8350523;28;20273;-69
2022/09/10 10:32:41;;;;;;;1.17;0.57;;;20.40;99.90;;;;;;8346231;28;20209;-69
2022/09/10 10:37:06;;;;;;;1.50;0.60;;;20.40;99.90;;;;;;8346040;28;20213;-69
2022/09/10 10:41:45;;;;;;;2.57;0.70;;;20.30;99.90;;;;;;8351568;28;20247;-69
2022/09/10 10:45:55;;;;;;;3.43;0.77;;;20.30;99.90;;;;;;8339876;28;20193;-68
2022/09/10 10:50:14;;;;;;;1.37;0.40;;;20.30;99.90;;;;;;8348319;28;20752;-69
2022/09/10 10:54:33;;;;;;;0.70;0.30;;;20.50;99.90;;;;;;8339655;28;20205;-69
2022/09/10 10:58:51;;;;;;;0.80;0.50;;;21.00;99.90;;;;;;8349461;28;20178;-69
2022/09/10 11:03:04;;;;;;;1.47;0.50;;;21.60;86.40;;;;;;8346499;28;20217;-69
2022/09/10 11:07:26;;;;;;;1.63;0.70;;;22.00;60.50;;;;;;8359620;28;20190;-69
2022/09/10 11:11:40;;;;;;;3.00;0.50;;;22.20;70.40;;;;;;8345224;28;20221;-68
2022/09/10 11:15:52;;;;;;;1.37;0.53;;;22.20;48.70;;;;;;8349316;28;20178;-69
2022/09/10 11:20:02;;;;;;;3.27;0.77;;;22.40;24.70;;;;;;8347257;28;20303;-66
2022/09/10 11:24:39;;;;;;;1.23;0.50;;;22.30;58.30;;;;;;8348589;28;20209;-67
2022/09/10 11:29:04;;;;;;;1.23;0.60;;;21.80;79.30;;;;;;8342138;28;20251;-67
2022/09/10 11:33:26;;;;;;;1.10;0.50;;;21.40;90.80;;;;;;8344633;28;20244;-67
2022/09/10 11:37:46;;;;;;;5.63;0.77;;;21.40;95.40;;;;;;8355072;28;20211;-66
2022/09/10 11:41:51;;;;;;;2.60;0.37;;;21.60;96.50;;;;;;8348753;28;20577;-66
2022/09/10 11:45:59;;;;;;;1.27;0.80;;;21.70;66.90;;;;;;8351481;28;20186;-67
2022/09/10 11:50:20;;;;;;;0.90;0.37;;;21.90;64.80;;;;;;8355773;28;20189;-67
2022/09/10 11:54:33;;;;;;;0.83;0.40;;;22.40;42.50;;;;;;8346701;28;20201;-67
2022/09/10 11:58:55;;;;;;;1.63;0.50;;;22.50;12.50;;;;;;8348052;28;20182;-69
2022/09/10 12:03:40;;;;;;;1.60;0.57;;;22.60;8.10;;;;;;8352184;28;20189;-66
2022/09/10 12:08:13;;;;;;;1.17;0.60;;;22.00;21.90;;;;;;8276127;28;20187;-66
2022/09/10 12:12:32;;;;;;;1.83;0.63;;;21.40;50.20;;;;;;8321855;28;20214;-67
2022/09/10 12:16:45;;;;;;;1.83;0.60;;;21.10;58.50;;;;;;8348076;28;20182;-67
2022/09/10 12:20:55;;;;;;;2.63;0.60;;;21.00;93.60;;;;;;8344456;28;20198;-67
2022/09/10 12:25:03;;;;;;;1.77;0.63;;;21.00;99.90;;;;;;8350581;28;20187;-66
2022/09/10 12:29:04;;;;;;;2.90;0.60;;;21.20;98.70;;;;;;8342720;28;20189;-68
2022/09/10 12:33:25;;;;;;;1.50;0.40;;;21.60;67.10;;;;;;8346401;28;20224;-66
2022/09/10 12:37:29;;;;;;;2.60;0.60;;;21.80;14.50;;;;;;8345681;28;20193;-67
2022/09/10 12:41:29;;;;;;;2.90;0.70;;;21.60;5.10;;;;;;8346590;28;20185;-67
2022/09/10 12:46:07;;;;;;;1.63;0.40;;;21.30;28.50;;;;;;8360226;28;20185;-67
2022/09/10 12:50:44;;;;;;;0.80;0.30;;;21.50;1.00;;;;;;8361377;28;20806;-68
2022/09/10 12:55:00;;;;;;;1.80;0.30;;;21.30;1.00;;;;;;8343910;28;20198;-67
2022/09/10 12:59:09;;;;;;;1.93;0.30;;;21.30;1.00;;;;;;8347141;28;20186;-68
2022/09/10 13:03:16;;;;;;;1.20;0.43;;;21.40;1.00;;;;;;8361333;28;20247;-68
2022/09/10 13:07:43;;;;;;;1.23;0.50;;;21.40;3.30;;;;;;8380218;28;20182;-67
2022/09/10 13:11:48;;;;;;;0.90;0.33;;;21.50;28.50;;;;;;8341908;28;20217;-67
2022/09/10 13:15:52;;;;;;;4.03;2.03;;;21.50;55.70;;;;;;8352860;28;20192;-68
2022/09/10 13:19:53;;;;;;;2.60;0.57;;;21.90;16.20;;;;;;8347101;28;20189;-68
2022/09/10 13:23:55;;;;;;;0.70;0.40;;;22.40;1.00;;;;;;8343488;28;20189;-68
2022/09/10 13:27:55;;;;;;;2.90;0.50;;;22.30;1.00;;;;;;8351135;28;20289;-67
2022/09/10 13:32:20;;;;;;;0.80;0.30;;;22.40;1.00;;;;;;8352403;28;20305;-68
2022/09/10 13:36:24;;;;;;;1.63;0.40;;;22.60;1.00;;;;;;8341748;28;20185;-68
2022/09/10 13:40:58;;;;;;;2.57;0.50;;;22.30;1.00;;;;;;8353400;28;20197;-67
2022/09/10 13:45:28;;;;;;;1.33;0.67;;;22.20;1.00;;;;;;8340761;28;20189;-68
2022/09/10 13:49:43;;;;;;;2.77;0.50;;;22.00;18.00;;;;;;8354078;28;20193;-69
2022/09/10 13:53:47;;;;;;;3.00;0.50;;;22.00;21.40;;;;;;8350343;28;20210;-69
2022/09/10 13:57:51;;;;;;;0.80;0.30;;;22.20;19.10;;;;;;8352735;28;20205;-69
2022/09/10 14:01:54;;;;;;;0.87;0.40;;;22.10;13.60;;;;;;8359686;28;20174;-73
2022/09/10 14:06:07;;;;;;;1.73;0.50;;;22.20;4.00;;;;;;8349376;28;20918;-69
2022/09/10 14:10:10;;;;;;;0.67;0.33;;;22.60;1.90;;;;;;8351717;28;20194;-69
2022/09/10 14:14:18;;;;;;;0.80;0.27;;;22.50;1.00;;;;;;8349659;28;20324;-68
2022/09/10 14:18:20;;;;;;;0.93;0.40;;;22.00;1.00;;;;;;8352185;28;20185;-68
2022/09/10 14:22:23;;;;;;;0.90;0.50;;;22.10;1.00;;;;;;8354369;28;20567;-68
2022/09/10 14:26:27;;;;;;;1.10;0.33;;;22.50;1.00;;;;;;8352788;28;20213;-68
2022/09/10 14:30:28;;;;;;;0.90;0.30;;;22.50;1.00;;;;;;8350260;28;20182;-69
2022/09/10 14:34:31;;;;;;;1.53;0.27;;;22.50;1.00;;;;;;8356811;28;20224;-69
2022/09/10 14:38:38;;;;;;;1.37;0.20;;;22.50;1.00;;;;;;8350963;28;20209;-69
2022/09/10 14:42:39;;;;;;;0.50;0.20;;;22.40;1.00;;;;;;8351209;28;20267;-67
2022/09/10 14:46:57;;;;;;;0.70;0.20;;;22.10;1.00;;;;;;8350966;28;20182;-68
2022/09/10 14:51:09;;;;;;;1.27;0.23;;;21.90;1.00;;;;;;8350664;28;20730;-68
2022/09/10 14:55:10;;;;;;;1.50;0.30;;;21.60;1.00;;;;;;8347728;28;20193;-68
2022/09/10 14:59:16;;;;;;;1.40;0.30;;;21.60;1.00;;;;;;8383292;28;20198;-68
2022/09/10 15:03:17;;;;;;;0.53;0.30;;;21.80;1.00;;;;;;8348876;28;20186;-68
2022/09/10 15:07:18;;;;;;;1.10;0.30;;;22.10;1.00;;;;;;8347822;28;20196;-68
2022/09/10 15:11:24;;;;;;;0.60;0.20;;;22.60;1.00;;;;;;8362973;28;20522;-68
2022/09/10 15:15:26;;;;;;;2.30;0.30;;;22.90;1.00;;;;;;8350356;28;20186;-68
2022/09/10 15:19:27;;;;;;;0.53;0.30;;;22.80;1.00;;;;;;8347228;28;20209;-68
2022/09/10 15:23:28;;;;;;;0.73;0.27;;;22.70;1.00;;;;;;8347380;28;20216;-67
2022/09/10 15:27:29;;;;;;;2.90;0.63;;;22.70;1.00;;;;;;8348799;28;20276;-68
2022/09/10 15:31:30;;;;;;;1.57;0.50;;;22.60;1.00;;;;;;8347949;28;20216;-67
2022/09/10 15:35:31;;;;;;;1.00;0.57;;;22.40;6.10;;;;;;8346790;28;20189;-67
2022/09/10 15:39:32;;;;;;;1.07;0.57;;;22.30;22.60;;;;;;8345551;28;20185;-67
2022/09/10 15:43:37;;;;;;;1.20;0.40;;;22.30;36.40;;;;;;8351036;28;20386;-68
2022/09/10 15:47:40;;;;;;;1.47;0.43;;;22.10;45.70;;;;;;8348447;28;20209;-68
2022/09/10 15:51:41;;;;;;;0.77;0.30;;;20.50;99.90;;;;;;8348174;28;20396;-68
2022/09/10 15:55:42;;;;;;;1.70;0.63;;;19.00;99.90;;;;;;8349153;28;20178;-70
2022/09/10 15:59:43;;;;;;;2.73;0.93;;;18.30;1.00;;;;;;8346484;28;20209;-69
2022/09/10 16:03:50;;;;;;;1.67;0.70;;;18.00;99.90;;;;;;8346546;28;20260;-68
2022/09/10 16:07:51;;;;;;;4.67;1.00;;;17.90;1.00;;;;;;8381912;28;20414;-69
2022/09/10 16:11:52;;;;;;;1.47;0.60;;;17.90;1.00;;;;;;8346324;28;20264;-69
2022/09/10 16:16:01;;;;;;;1.47;0.83;;;17.90;1.00;;;;;;8348803;28;20215;-68
2022/09/10 16:20:02;;;;;;;1.57;0.73;;;18.20;1.00;;;;;;8381326;28;20351;-68
2022/09/10 16:24:04;;;;;;;1.43;0.60;;;18.50;99.90;;;;;;8348770;28;20194;-68
2022/09/10 16:28:05;;;;;;;0.90;0.50;;;18.90;99.90;;;;;;8346462;28;20189;-69
2022/09/10 16:32:06;;;;;;;1.10;0.70;;;19.30;99.90;;;;;;8348668;28;20566;-69
2022/09/10 16:36:07;;;;;;;0.70;0.67;;;19.50;1.00;;;;;;8347277;28;20239;-69
2022/09/10 16:40:09;;;;;;;1.60;0.73;;;19.60;99.90;;;;;;8356468;28;20186;-69
2022/09/10 16:44:13;;;;;;;2.13;0.80;;;19.50;73.40;;;;;;8343136;28;20181;-69
2022/09/10 16:48:14;;;;;;;1.53;0.90;;;19.20;99.90;;;;;;8345209;28;20193;-69
2022/09/10 16:52:15;;;;;;;0.90;0.70;;;18.90;99.90;;;;;;8346011;28;20232;-69
2022/09/10 16:56:16;;;;;;;1.37;1.00;;;18.60;1.00;;;;;;8349901;28;20190;-70
2022/09/10 17:00:17;;;;;;;0.90;0.80;;;18.20;99.90;;;;;;8342775;28;20264;-69
2022/09/10 17:04:21;;;;;;;1.83;1.20;;;17.90;99.90;;;;;;8342487;28;20484;-69
2022/09/10 17:08:24;;;;;;;6.63;2.37;;;17.60;99.90;;;;;;8345673;28;20603;-69
2022/09/10 17:12:25;;;;;;;3.07;1.80;;;17.30;99.90;;;;;;8356883;28;20221;-69
2022/09/10 17:16:37;;;;;;;2.00;1.30;;;17.10;99.90;;;;;;8362152;28;20239;-69
2022/09/10 17:20:40;;;;;;;2.57;1.37;;;16.80;1.00;;;;;;8344661;28;20208;-69
2022/09/10 17:24:41;;;;;;;2.87;2.03;;;16.40;1.00;;;;;;8347865;28;20178;-69
2022/09/10 17:28:43;;;;;;;1.60;1.50;;;16.20;99.90;;;;;;8343698;28;20262;-69
2022/09/10 17:32:44;;;;;;;1.70;1.50;;;16.00;99.90;;;;;;8341729;28;20225;-69
2022/09/10 17:36:46;;;;;;;3.73;1.50;;;15.80;1.00;;;;;;8346115;28;20189;-70
2022/09/10 17:40:54;;;;;;;1.23;1.10;;;15.60;99.90;;;;;;8344368;28;20200;-69
2022/09/10 17:44:55;;;;;;;1.50;1.13;;;15.50;99.90;;;;;;8343935;28;20216;-69
2022/09/10 17:48:58;;;;;;;2.23;1.30;;;15.30;99.90;;;;;;8340825;28;20265;-70
2022/09/10 17:53:00;;;;;;;1.43;1.20;;;15.20;99.90;;;;;;8342552;28;20221;-71
2022/09/10 17:57:01;;;;;;;2.37;1.40;;;15.00;99.90;;;;;;8345756;28;20235;-69
2022/09/10 18:01:07;;;;;;;2.33;1.23;;;14.90;99.90;;;;;;8344619;28;20193;-69
2022/09/10 18:05:10;;;;;;;1.40;1.30;;;14.90;99.90;;;;;;8380735;28;20232;-70
2022/09/10 18:09:13;;;;;;;2.50;1.37;;;14.80;99.90;;;;;;8346644;28;20252;-69
2022/09/10 18:13:14;;;;;;;1.40;1.30;;;14.80;99.90;;;;;;8346869;28;20285;-69
2022/09/10 18:17:18;;;;;;;1.63;1.53;;;14.80;99.90;;;;;;8353242;28;20189;-69
2022/09/10 18:21:22;;;;;;;3.73;2.00;;;14.80;99.90;;;;;;8350075;28;20198;-69
2022/09/10 18:25:26;;;;;;;2.10;1.70;;;14.90;99.90;;;;;;8349009;28;20190;-69
2022/09/10 18:29:28;;;;;;;2.23;1.30;;;14.90;99.90;;;;;;8353407;28;20182;-70
2022/09/10 18:33:37;;;;;;;3.17;2.17;;;15.00;99.90;;;;;;8348483;28;20285;-69
2022/09/10 18:37:38;;;;;;;2.00;1.53;;;15.00;99.90;;;;;;8355416;28;20189;-68
2022/09/10 18:41:41;;;;;;;1.70;1.20;;;15.10;99.90;;;;;;8350886;28;20244;-69
2022/09/10 18:45:42;;;;;;;1.10;1.00;;;15.30;99.90;;;;;;8347149;28;20264;-68
2022/09/10 18:49:43;;;;;;;2.70;1.00;;;15.30;99.90;;;;;;8349041;28;20193;-69
2022/09/10 18:53:45;;;;;;;1.63;1.00;;;15.30;99.90;;;;;;8347106;28;20311;-69
2022/09/10 18:57:49;;;;;;;1.70;0.67;;;15.20;99.90;;;;;;8349968;28;20173;-70
2022/09/10 19:01:52;;;;;;;3.67;0.80;;;15.10;99.90;;;;;;8349112;28;20200;-69
2022/09/10 19:05:53;;;;;;;0.97;0.87;;;15.00;40.90;;;;;;8349501;28;20197;-68
2022/09/10 19:09:53;;;;;;;1.13;0.80;;;14.90;75.40;;;;;;8351686;28;20193;-68
2022/09/10 19:13:56;;;;;;;2.93;0.90;;;14.80;99.90;;;;;;8346578;28;20289;-69
2022/09/10 19:17:57;;;;;;;1.57;0.83;;;14.70;99.90;;;;;;8348998;28;20182;-70
2022/09/10 19:22:04;;;;;;;1.93;0.70;;;14.70;99.90;;;;;;8352122;28;20304;-69
2022/09/10 19:26:08;;;;;;;1.33;0.80;;;14.60;1.00;;;;;;8347222;28;20209;-69
2022/09/10 19:30:10;;;;;;;2.10;0.90;;;14.60;29.40;;;;;;8353229;28;20244;-69
2022/09/10 19:34:12;;;;;;;2.00;1.00;;;14.60;99.90;;;;;;8346203;28;20218;-69
2022/09/10 19:38:14;;;;;;;0.90;0.90;;;14.70;99.90;;;;;;8377910;28;20516;-70
2022/09/10 19:42:16;;;;;;;2.10;1.20;;;14.70;99.90;;;;;;8363673;28;20190;-69
2022/09/10 19:46:19;;;;;;;3.03;1.10;;;14.60;1.00;;;;;;8344361;28;20182;-69
2022/09/10 19:50:21;;;;;;;2.03;1.53;;;14.60;99.90;;;;;;8349779;28;20257;-68
2022/09/10 19:54:23;;;;;;;2.63;1.53;;;14.50;99.90;;;;;;8331736;28;20217;-69
2022/09/10 19:58:27;;;;;;;2.43;1.50;;;14.50;99.90;;;;;;8348141;28;20185;-69
2022/09/10 20:02:28;;;;;;;1.83;1.10;;;14.40;99.90;;;;;;8347356;28;20189;-69
2022/09/10 20:06:29;;;;;;;1.13;1.03;;;14.40;99.90;;;;;;8347922;28;20190;-69
2022/09/10 20:10:30;;;;;;;3.77;1.70;;;14.40;99.90;;;;;;8341682;28;20189;-69
2022/09/10 20:14:31;;;;;;;2.43;1.30;;;14.30;99.90;;;;;;8349306;28;20213;-68
2022/09/10 20:18:35;;;;;;;4.33;1.40;;;14.20;99.90;;;;;;8348506;28;20185;-68
2022/09/10 20:22:36;;;;;;;1.73;1.00;;;14.20;99.90;;;;;;8346082;28;20267;-68
2022/09/10 20:26:40;;;;;;;1.53;1.43;;;14.10;99.90;;;;;;8352476;28;20248;-68
2022/09/10 20:30:44;;;;;;;1.40;1.13;;;14.10;99.90;;;;;;8352432;28;20704;-70
2022/09/10 20:34:45;;;;;;;1.60;1.30;;;14.10;99.90;;;;;;8347193;28;20210;-68
2022/09/10 20:38:47;;;;;;;1.60;1.10;;;14.10;99.90;;;;;;8345871;28;20185;-68
2022/09/10 20:42:53;;;;;;;1.30;1.20;;;14.20;99.90;;;;;;8345792;28;20182;-69
2022/09/10 20:46:55;;;;;;;2.10;1.33;;;14.20;99.90;;;;;;8346959;28;20185;-68
2022/09/10 20:50:58;;;;;;;1.63;1.23;;;14.30;99.90;;;;;;8346914;28;20189;-68
2022/09/10 20:55:00;;;;;;;2.10;1.33;;;14.20;99.90;;;;;;8345236;28;20216;-68
2022/09/10 20:59:01;;;;;;;3.53;1.60;;;14.20;99.90;;;;;;8340871;28;20190;-69
2022/09/10 21:03:02;;;;;;;2.97;1.77;;;14.20;99.90;;;;;;8345255;28;20189;-69
2022/09/10 21:07:03;;;;;;;3.33;2.00;;;14.10;99.90;;;;;;8347630;28;20199;-69
2022/09/10 21:11:07;;;;;;;1.70;1.60;;;14.10;99.90;;;;;;8345166;28;20189;-68
2022/09/10 21:15:08;;;;;;;1.63;1.53;;;14.10;99.90;;;;;;8348134;28;20213;-69
2022/09/10 21:19:12;;;;;;;1.70;1.53;;;14.00;99.90;;;;;;8348102;28;20221;-68